This is the latest recevied weather packets stored in our database for station/object EFTP. If no packets are shown the sender has not sent any weather packets the latest 1 day(s).
| Time | Temp. | Humidity | Pressure | Rain* | Wind** | Luminosity | Snow |
|---|---|---|---|---|---|---|---|
| 1778074042 | 9.44° C | 25% | 1013.2 hPa | - | - | - | - |
| 1778070442 | 10° C | 31% | 1013 hPa | - | - | - | - |
| 1778065642 | 8.89° C | 28% | 1012.6 hPa | - | - | - | - |
| 1778064443 | 9.44° C | 28% | 1012.4 hPa | - | - | - | - |
| 1778062043 | 9.44° C | 26% | 1012.4 hPa | - | - | - | - |
| 1778059642 | 9.44° C | 28% | 1012.1 hPa | - | - | - | - |
| 1778057243 | 8.33° C | 33% | 1012 hPa | - | - | - | - |
| 1778056043 | 7.22° C | 35% | 1011.9 hPa | - | - | - | - |
| 1778054842 | 7.22° C | 35% | 1011.7 hPa | - | - | - | - |
| 1778053642 | 7.22° C | 35% | 1011.5 hPa | - | - | - | - |
| 1778052443 | 7.22° C | 37% | 1011.5 hPa | - | - | - | - |
| 1778046442 | 5° C | 58% | 1010.9 hPa | - | - | - | - |
| 1778045243 | 3.89° C | 68% | 1010.9 hPa | - | - | - | - |
| 1778044042 | 3.89° C | 72% | 1010.7 hPa | - | - | - | - |
| 1778042842 | 3.33° C | 73% | 1010.5 hPa | - | - | - | - |
| 1778041642 | 2.78° C | 77% | 1010.4 hPa | - | - | - | - |
| 1778039242 | 1.11° C | 88% | 1010.1 hPa | - | - | - | - |
| 1778036842 | -0.56° C | 92% | 1009.7 hPa | - | - | - | - |
| 1778035641 | -1.11° C | 91% | 1009.5 hPa | - | - | - | - |
| 1778034441 | -0.56° C | 91% | 1009.1 hPa | - | - | - | - |
| 1778033241 | 0° C | 92% | 1009.1 hPa | - | - | - | - |
| 1778030841 | 0.56° C | 88% | 1008.8 hPa | - | - | - | - |
| 1778028441 | -0.56° C | 90% | 1008.4 hPa | - | - | - | - |
| 1778018841 | 2.22° C | 74% | 1007.7 hPa | - | - | - | - |
| 1778017641 | 2.22° C | 72% | 1007.7 hPa | - | - | - | - |
* Rain since midnight (hover to see other rain measurements)
** Current wind speed in m/s (hover to see current wind gust speed)